sensor_id;sensor_type;location;lat;lon;timestamp;temperature;humidity
19799;DHT22;10059;59.850;10.454;2023-02-15T00:02:00;1.80;99.90
19799;DHT22;10059;59.850;10.454;2023-02-15T00:04:27;1.80;99.90
19799;DHT22;10059;59.850;10.454;2023-02-15T00:07:13;1.80;99.90
19799;DHT22;10059;59.850;10.454;2023-02-15T00:09:40;1.80;99.90
19799;DHT22;10059;59.850;10.454;2023-02-15T00:12:06;1.80;99.90
19799;DHT22;10059;59.850;10.454;2023-02-15T00:14:33;1.90;99.90
19799;DHT22;10059;59.850;10.454;2023-02-15T00:17:01;2.00;99.90
19799;DHT22;10059;59.850;10.454;2023-02-15T00:19:28;2.00;99.90
19799;DHT22;10059;59.850;10.454;2023-02-15T00:21:58;2.10;99.90
19799;DHT22;10059;59.850;10.454;2023-02-15T00:24:26;2.10;99.90
19799;DHT22;10059;59.850;10.454;2023-02-15T00:26:53;1.90;99.90
19799;DHT22;10059;59.850;10.454;2023-02-15T00:29:20;1.90;99.90
19799;DHT22;10059;59.850;10.454;2023-02-15T00:31:47;1.90;99.90
19799;DHT22;10059;59.850;10.454;2023-02-15T00:34:17;2.00;99.90
19799;DHT22;10059;59.850;10.454;2023-02-15T00:36:45;2.00;99.90
19799;DHT22;10059;59.850;10.454;2023-02-15T00:39:12;2.00;99.90
19799;DHT22;10059;59.850;10.454;2023-02-15T00:41:39;2.00;99.90
19799;DHT22;10059;59.850;10.454;2023-02-15T00:44:07;2.00;99.90
19799;DHT22;10059;59.850;10.454;2023-02-15T00:46:35;1.90;99.90
19799;DHT22;10059;59.850;10.454;2023-02-15T00:49:02;1.80;99.90
19799;DHT22;10059;59.850;10.454;2023-02-15T00:51:31;1.70;99.90
19799;DHT22;10059;59.850;10.454;2023-02-15T00:53:58;1.50;99.90
19799;DHT22;10059;59.850;10.454;2023-02-15T00:56:25;1.50;99.90
19799;DHT22;10059;59.850;10.454;2023-02-15T00:58:53;1.50;99.90
19799;DHT22;10059;59.850;10.454;2023-02-15T01:01:21;1.40;99.90
19799;DHT22;10059;59.850;10.454;2023-02-15T01:03:48;1.40;99.90
19799;DHT22;10059;59.850;10.454;2023-02-15T01:06:16;1.50;99.90
19799;DHT22;10059;59.850;10.454;2023-02-15T01:08:45;1.60;99.90
19799;DHT22;10059;59.850;10.454;2023-02-15T01:11:14;1.40;99.90
19799;DHT22;10059;59.850;10.454;2023-02-15T01:13:48;1.30;99.90
19799;DHT22;10059;59.850;10.454;2023-02-15T01:16:15;1.10;99.90
19799;DHT22;10059;59.850;10.454;2023-02-15T01:18:42;0.90;99.90
19799;DHT22;10059;59.850;10.454;2023-02-15T01:21:11;0.90;99.90
19799;DHT22;10059;59.850;10.454;2023-02-15T01:23:39;1.00;99.90
19799;DHT22;10059;59.850;10.454;2023-02-15T01:26:08;1.00;99.90
19799;DHT22;10059;59.850;10.454;2023-02-15T01:28:35;1.00;99.90
19799;DHT22;10059;59.850;10.454;2023-02-15T01:31:05;0.90;99.90
19799;DHT22;10059;59.850;10.454;2023-02-15T01:33:32;1.00;99.90
19799;DHT22;10059;59.850;10.454;2023-02-15T01:35:59;1.00;99.90
19799;DHT22;10059;59.850;10.454;2023-02-15T01:38:26;1.00;99.90
19799;DHT22;10059;59.850;10.454;2023-02-15T01:40:53;1.00;99.90
19799;DHT22;10059;59.850;10.454;2023-02-15T01:43:42;1.10;99.90
19799;DHT22;10059;59.850;10.454;2023-02-15T01:46:11;0.80;99.90
19799;DHT22;10059;59.850;10.454;2023-02-15T01:48:43;0.80;99.90
19799;DHT22;10059;59.850;10.454;2023-02-15T01:51:11;1.00;99.90
19799;DHT22;10059;59.850;10.454;2023-02-15T01:53:43;0.90;99.90
19799;DHT22;10059;59.850;10.454;2023-02-15T01:56:13;0.80;99.90
19799;DHT22;10059;59.850;10.454;2023-02-15T01:58:43;0.80;99.90
19799;DHT22;10059;59.850;10.454;2023-02-15T02:01:10;0.80;99.90
19799;DHT22;10059;59.850;10.454;2023-02-15T02:03:43;1.00;99.90
19799;DHT22;10059;59.850;10.454;2023-02-15T02:06:12;1.00;99.90
19799;DHT22;10059;59.850;10.454;2023-02-15T02:08:39;0.90;99.90
19799;DHT22;10059;59.850;10.454;2023-02-15T02:11:10;0.80;99.90
19799;DHT22;10059;59.850;10.454;2023-02-15T02:13:37;0.80;99.90
19799;DHT22;10059;59.850;10.454;2023-02-15T02:16:10;0.80;99.90
19799;DHT22;10059;59.850;10.454;2023-02-15T02:18:48;0.80;99.90
19799;DHT22;10059;59.850;10.454;2023-02-15T02:24:39;0.90;99.90
19799;DHT22;10059;59.850;10.454;2023-02-15T02:27:21;1.00;99.90
19799;DHT22;10059;59.850;10.454;2023-02-15T02:36:06;0.90;99.90
19799;DHT22;10059;59.850;10.454;2023-02-15T02:38:46;1.00;99.90
19799;DHT22;10059;59.850;10.454;2023-02-15T02:41:20;0.90;99.90
19799;DHT22;10059;59.850;10.454;2023-02-15T02:43:54;1.00;99.90
19799;DHT22;10059;59.850;10.454;2023-02-15T02:46:28;0.80;99.90
19799;DHT22;10059;59.850;10.454;2023-02-15T02:48:56;0.80;99.90
19799;DHT22;10059;59.850;10.454;2023-02-15T02:51:25;0.90;99.90
19799;DHT22;10059;59.850;10.454;2023-02-15T02:53:55;1.00;99.90
19799;DHT22;10059;59.850;10.454;2023-02-15T02:56:29;1.10;99.90
19799;DHT22;10059;59.850;10.454;2023-02-15T02:58:59;0.90;99.90
19799;DHT22;10059;59.850;10.454;2023-02-15T03:01:31;0.90;99.90
19799;DHT22;10059;59.850;10.454;2023-02-15T03:04:03;0.80;99.90
19799;DHT22;10059;59.850;10.454;2023-02-15T03:06:39;0.90;99.90
19799;DHT22;10059;59.850;10.454;2023-02-15T03:09:10;1.00;99.90
19799;DHT22;10059;59.850;10.454;2023-02-15T03:11:42;1.00;99.90
19799;DHT22;10059;59.850;10.454;2023-02-15T03:14:10;0.80;99.90
19799;DHT22;10059;59.850;10.454;2023-02-15T03:16:40;0.70;99.90
19799;DHT22;10059;59.850;10.454;2023-02-15T03:19:10;0.60;99.90
19799;DHT22;10059;59.850;10.454;2023-02-15T03:21:42;0.60;99.90
19799;DHT22;10059;59.850;10.454;2023-02-15T03:24:17;0.60;99.90
19799;DHT22;10059;59.850;10.454;2023-02-15T03:26:48;0.50;99.90
19799;DHT22;10059;59.850;10.454;2023-02-15T03:29:17;0.40;99.90
19799;DHT22;10059;59.850;10.454;2023-02-15T03:31:48;0.50;99.90
19799;DHT22;10059;59.850;10.454;2023-02-15T03:34:17;0.50;99.90
19799;DHT22;10059;59.850;10.454;2023-02-15T03:36:49;0.50;99.90
19799;DHT22;10059;59.850;10.454;2023-02-15T03:39:20;0.50;99.90
19799;DHT22;10059;59.850;10.454;2023-02-15T03:41:55;0.50;99.90
19799;DHT22;10059;59.850;10.454;2023-02-15T03:44:27;0.50;99.90
19799;DHT22;10059;59.850;10.454;2023-02-15T03:46:59;0.50;99.90
19799;DHT22;10059;59.850;10.454;2023-02-15T03:49:32;0.60;99.90
19799;DHT22;10059;59.850;10.454;2023-02-15T03:52:05;0.60;99.90
19799;DHT22;10059;59.850;10.454;2023-02-15T03:54:34;0.50;99.90
19799;DHT22;10059;59.850;10.454;2023-02-15T03:57:15;0.50;99.90
19799;DHT22;10059;59.850;10.454;2023-02-15T04:00:01;0.70;99.90
19799;DHT22;10059;59.850;10.454;2023-02-15T04:05:38;0.40;99.90
19799;DHT22;10059;59.850;10.454;2023-02-15T04:08:06;0.60;99.90
19799;DHT22;10059;59.850;10.454;2023-02-15T04:10:33;0.60;99.90
19799;DHT22;10059;59.850;10.454;2023-02-15T04:13:18;0.60;99.90
19799;DHT22;10059;59.850;10.454;2023-02-15T04:15:44;0.40;99.90
19799;DHT22;10059;59.850;10.454;2023-02-15T04:18:29;0.40;99.90
19799;DHT22;10059;59.850;10.454;2023-02-15T04:21:13;0.60;99.90
19799;DHT22;10059;59.850;10.454;2023-02-15T04:23:58;0.80;99.90
19799;DHT22;10059;59.850;10.454;2023-02-15T04:26:43;0.70;99.90
19799;DHT22;10059;59.850;10.454;2023-02-15T04:29:09;0.50;99.90
19799;DHT22;10059;59.850;10.454;2023-02-15T04:31:36;0.50;99.90
19799;DHT22;10059;59.850;10.454;2023-02-15T04:34:03;0.70;99.90
19799;DHT22;10059;59.850;10.454;2023-02-15T04:36:30;0.80;99.90
19799;DHT22;10059;59.850;10.454;2023-02-15T04:38:58;0.80;99.90
19799;DHT22;10059;59.850;10.454;2023-02-15T04:41:25;0.70;99.90
19799;DHT22;10059;59.850;10.454;2023-02-15T04:43:52;0.70;99.90
19799;DHT22;10059;59.850;10.454;2023-02-15T04:46:18;0.70;99.90
19799;DHT22;10059;59.850;10.454;2023-02-15T04:48:45;0.90;99.90
19799;DHT22;10059;59.850;10.454;2023-02-15T04:51:12;0.80;99.90
19799;DHT22;10059;59.850;10.454;2023-02-15T04:53:39;0.90;99.90
19799;DHT22;10059;59.850;10.454;2023-02-15T04:56:07;0.90;99.90
19799;DHT22;10059;59.850;10.454;2023-02-15T04:58:34;1.00;99.90
19799;DHT22;10059;59.850;10.454;2023-02-15T05:01:02;0.80;99.90
19799;DHT22;10059;59.850;10.454;2023-02-15T05:03:29;0.60;99.90
19799;DHT22;10059;59.850;10.454;2023-02-15T05:05:56;0.70;99.90
19799;DHT22;10059;59.850;10.454;2023-02-15T05:08:23;0.60;99.90
19799;DHT22;10059;59.850;10.454;2023-02-15T05:10:50;0.60;99.90
19799;DHT22;10059;59.850;10.454;2023-02-15T05:13:18;0.70;99.90
19799;DHT22;10059;59.850;10.454;2023-02-15T05:15:47;0.70;99.90
19799;DHT22;10059;59.850;10.454;2023-02-15T05:18:14;0.50;99.90
19799;DHT22;10059;59.850;10.454;2023-02-15T05:20:41;0.50;99.90
19799;DHT22;10059;59.850;10.454;2023-02-15T05:23:08;0.50;99.90
19799;DHT22;10059;59.850;10.454;2023-02-15T05:25:35;0.50;99.90
19799;DHT22;10059;59.850;10.454;2023-02-15T05:28:20;0.50;99.90
19799;DHT22;10059;59.850;10.454;2023-02-15T05:30:48;0.70;99.90
19799;DHT22;10059;59.850;10.454;2023-02-15T05:33:15;0.60;99.90
19799;DHT22;10059;59.850;10.454;2023-02-15T05:35:42;0.50;99.90
19799;DHT22;10059;59.850;10.454;2023-02-15T05:38:09;0.60;99.90
19799;DHT22;10059;59.850;10.454;2023-02-15T05:40:35;0.60;99.90
19799;DHT22;10059;59.850;10.454;2023-02-15T05:43:02;0.70;99.90
19799;DHT22;10059;59.850;10.454;2023-02-15T05:45:30;0.60;99.90
19799;DHT22;10059;59.850;10.454;2023-02-15T05:47:57;0.70;99.90
19799;DHT22;10059;59.850;10.454;2023-02-15T05:50:24;0.60;99.90
19799;DHT22;10059;59.850;10.454;2023-02-15T05:52:51;0.60;99.90
19799;DHT22;10059;59.850;10.454;2023-02-15T05:55:18;0.60;99.90
19799;DHT22;10059;59.850;10.454;2023-02-15T05:57:45;0.60;99.90
19799;DHT22;10059;59.850;10.454;2023-02-15T06:00:13;0.60;99.90
19799;DHT22;10059;59.850;10.454;2023-02-15T06:02:42;0.60;99.90
19799;DHT22;10059;59.850;10.454;2023-02-15T06:05:08;0.70;99.90
19799;DHT22;10059;59.850;10.454;2023-02-15T06:07:35;0.80;99.90
19799;DHT22;10059;59.850;10.454;2023-02-15T06:10:02;0.90;99.90
19799;DHT22;10059;59.850;10.454;2023-02-15T06:12:30;0.90;99.90
19799;DHT22;10059;59.850;10.454;2023-02-15T06:14:57;1.00;99.90
19799;DHT22;10059;59.850;10.454;2023-02-15T06:17:23;1.10;99.90
19799;DHT22;10059;59.850;10.454;2023-02-15T06:19:52;1.30;99.90
19799;DHT22;10059;59.850;10.454;2023-02-15T06:22:18;1.20;99.90
19799;DHT22;10059;59.850;10.454;2023-02-15T06:24:45;1.20;99.90
19799;DHT22;10059;59.850;10.454;2023-02-15T06:27:12;1.10;99.90
19799;DHT22;10059;59.850;10.454;2023-02-15T06:29:39;1.20;99.90
19799;DHT22;10059;59.850;10.454;2023-02-15T06:32:06;1.10;99.90
19799;DHT22;10059;59.850;10.454;2023-02-15T06:34:33;1.00;99.90
19799;DHT22;10059;59.850;10.454;2023-02-15T06:37:01;1.10;99.90
19799;DHT22;10059;59.850;10.454;2023-02-15T06:39:28;1.10;99.90
19799;DHT22;10059;59.850;10.454;2023-02-15T06:41:55;1.10;99.90
19799;DHT22;10059;59.850;10.454;2023-02-15T06:44:21;1.10;99.90
19799;DHT22;10059;59.850;10.454;2023-02-15T06:46:48;1.10;99.90
19799;DHT22;10059;59.850;10.454;2023-02-15T06:49:15;1.10;99.90
19799;DHT22;10059;59.850;10.454;2023-02-15T06:51:42;1.10;99.90
19799;DHT22;10059;59.850;10.454;2023-02-15T06:54:10;1.20;99.90
19799;DHT22;10059;59.850;10.454;2023-02-15T06:56:37;1.20;99.90
19799;DHT22;10059;59.850;10.454;2023-02-15T06:59:04;1.20;99.90
19799;DHT22;10059;59.850;10.454;2023-02-15T07:01:31;1.20;99.90
19799;DHT22;10059;59.850;10.454;2023-02-15T07:03:58;1.20;99.90
19799;DHT22;10059;59.850;10.454;2023-02-15T07:06:24;1.20;99.90
19799;DHT22;10059;59.850;10.454;2023-02-15T07:08:51;1.20;99.90
19799;DHT22;10059;59.850;10.454;2023-02-15T07:11:20;1.40;99.90
19799;DHT22;10059;59.850;10.454;2023-02-15T07:14:04;1.50;99.90
19799;DHT22;10059;59.850;10.454;2023-02-15T07:16:31;1.30;99.90
19799;DHT22;10059;59.850;10.454;2023-02-15T07:18:57;1.30;99.90
19799;DHT22;10059;59.850;10.454;2023-02-15T07:21:24;1.20;99.90
19799;DHT22;10059;59.850;10.454;2023-02-15T07:23:51;1.10;99.90
19799;DHT22;10059;59.850;10.454;2023-02-15T07:26:19;1.10;99.90
19799;DHT22;10059;59.850;10.454;2023-02-15T07:28:46;1.10;99.90
19799;DHT22;10059;59.850;10.454;2023-02-15T07:31:13;1.10;99.90
19799;DHT22;10059;59.850;10.454;2023-02-15T07:33:40;1.30;99.90
19799;DHT22;10059;59.850;10.454;2023-02-15T07:36:07;1.30;99.90
19799;DHT22;10059;59.850;10.454;2023-02-15T07:38:38;1.20;99.90
19799;DHT22;10059;59.850;10.454;2023-02-15T07:41:06;1.10;99.90
19799;DHT22;10059;59.850;10.454;2023-02-15T07:43:37;1.20;99.90
19799;DHT22;10059;59.850;10.454;2023-02-15T07:46:06;1.30;99.90
19799;DHT22;10059;59.850;10.454;2023-02-15T07:48:34;1.20;99.90
19799;DHT22;10059;59.850;10.454;2023-02-15T07:51:03;1.30;99.90
19799;DHT22;10059;59.850;10.454;2023-02-15T07:53:30;1.20;99.90
19799;DHT22;10059;59.850;10.454;2023-02-15T07:55:58;1.20;99.90
19799;DHT22;10059;59.850;10.454;2023-02-15T07:58:25;1.20;99.90
19799;DHT22;10059;59.850;10.454;2023-02-15T08:01:14;1.20;99.90
19799;DHT22;10059;59.850;10.454;2023-02-15T08:03:40;1.20;99.90
19799;DHT22;10059;59.850;10.454;2023-02-15T08:06:07;1.00;99.90
19799;DHT22;10059;59.850;10.454;2023-02-15T08:08:35;0.90;99.90
19799;DHT22;10059;59.850;10.454;2023-02-15T08:11:05;0.80;99.90
19799;DHT22;10059;59.850;10.454;2023-02-15T08:13:50;0.90;99.90
19799;DHT22;10059;59.850;10.454;2023-02-15T08:16:23;0.90;99.90
19799;DHT22;10059;59.850;10.454;2023-02-15T08:18:51;0.90;99.90
19799;DHT22;10059;59.850;10.454;2023-02-15T08:21:18;1.00;99.90
19799;DHT22;10059;59.850;10.454;2023-02-15T08:23:45;1.00;99.90
19799;DHT22;10059;59.850;10.454;2023-02-15T08:26:11;0.80;99.90
19799;DHT22;10059;59.850;10.454;2023-02-15T08:28:38;0.60;99.90
19799;DHT22;10059;59.850;10.454;2023-02-15T08:31:06;0.70;99.90
19799;DHT22;10059;59.850;10.454;2023-02-15T08:33:35;0.80;99.90
19799;DHT22;10059;59.850;10.454;2023-02-15T08:36:03;0.80;99.90
19799;DHT22;10059;59.850;10.454;2023-02-15T08:38:30;0.90;99.90
19799;DHT22;10059;59.850;10.454;2023-02-15T08:40:57;0.80;99.90
19799;DHT22;10059;59.850;10.454;2023-02-15T08:43:24;0.90;99.90
19799;DHT22;10059;59.850;10.454;2023-02-15T08:45:51;1.00;99.90
19799;DHT22;10059;59.850;10.454;2023-02-15T08:48:18;0.90;99.90
19799;DHT22;10059;59.850;10.454;2023-02-15T08:50:46;1.00;99.90
19799;DHT22;10059;59.850;10.454;2023-02-15T08:53:13;0.90;99.90
19799;DHT22;10059;59.850;10.454;2023-02-15T08:55:39;0.90;99.90
19799;DHT22;10059;59.850;10.454;2023-02-15T08:58:06;1.10;99.90
19799;DHT22;10059;59.850;10.454;2023-02-15T09:00:33;1.10;99.90
19799;DHT22;10059;59.850;10.454;2023-02-15T09:03:00;1.10;99.90
19799;DHT22;10059;59.850;10.454;2023-02-15T09:05:27;0.90;99.90
19799;DHT22;10059;59.850;10.454;2023-02-15T09:07:55;1.00;99.90
19799;DHT22;10059;59.850;10.454;2023-02-15T09:10:21;1.20;99.90
19799;DHT22;10059;59.850;10.454;2023-02-15T09:12:48;1.20;99.90
19799;DHT22;10059;59.850;10.454;2023-02-15T09:15:16;1.10;99.90
19799;DHT22;10059;59.850;10.454;2023-02-15T09:17:43;1.00;99.90
19799;DHT22;10059;59.850;10.454;2023-02-15T09:20:10;0.90;99.90
19799;DHT22;10059;59.850;10.454;2023-02-15T09:22:37;0.90;99.90
19799;DHT22;10059;59.850;10.454;2023-02-15T09:25:06;0.90;99.90
19799;DHT22;10059;59.850;10.454;2023-02-15T09:27:33;1.10;99.90
19799;DHT22;10059;59.850;10.454;2023-02-15T09:29:59;1.30;99.90
19799;DHT22;10059;59.850;10.454;2023-02-15T09:32:26;1.00;99.90
19799;DHT22;10059;59.850;10.454;2023-02-15T09:34:53;1.10;99.90
19799;DHT22;10059;59.850;10.454;2023-02-15T09:37:20;1.10;99.90
19799;DHT22;10059;59.850;10.454;2023-02-15T09:39:46;1.30;99.90
19799;DHT22;10059;59.850;10.454;2023-02-15T09:42:36;1.20;99.90
19799;DHT22;10059;59.850;10.454;2023-02-15T09:45:20;1.30;99.90
19799;DHT22;10059;59.850;10.454;2023-02-15T09:48:08;1.40;99.90
19799;DHT22;10059;59.850;10.454;2023-02-15T09:50:49;1.40;99.90
19799;DHT22;10059;59.850;10.454;2023-02-15T09:53:29;1.50;99.90
19799;DHT22;10059;59.850;10.454;2023-02-15T09:56:06;1.50;99.90
19799;DHT22;10059;59.850;10.454;2023-02-15T09:58:48;1.60;99.90
19799;DHT22;10059;59.850;10.454;2023-02-15T10:01:26;1.40;99.90
19799;DHT22;10059;59.850;10.454;2023-02-15T10:04:17;1.40;99.90
19799;DHT22;10059;59.850;10.454;2023-02-15T10:06:52;1.50;99.90
19799;DHT22;10059;59.850;10.454;2023-02-15T10:09:51;1.40;99.90
19799;DHT22;10059;59.850;10.454;2023-02-15T10:12:42;1.60;99.90
19799;DHT22;10059;59.850;10.454;2023-02-15T10:15:33;1.80;99.90
19799;DHT22;10059;59.850;10.454;2023-02-15T10:18:19;1.90;99.90
19799;DHT22;10059;59.850;10.454;2023-02-15T10:20:54;1.60;99.90
19799;DHT22;10059;59.850;10.454;2023-02-15T10:23:37;1.40;99.90
19799;DHT22;10059;59.850;10.454;2023-02-15T10:26:11;1.50;99.90
19799;DHT22;10059;59.850;10.454;2023-02-15T10:28:46;1.50;99.90
19799;DHT22;10059;59.850;10.454;2023-02-15T10:31:23;1.30;99.90
19799;DHT22;10059;59.850;10.454;2023-02-15T10:33:59;1.40;99.90
19799;DHT22;10059;59.850;10.454;2023-02-15T10:36:42;1.60;99.90
19799;DHT22;10059;59.850;10.454;2023-02-15T10:39:18;2.00;99.90
19799;DHT22;10059;59.850;10.454;2023-02-15T10:41:56;2.40;99.90
19799;DHT22;10059;59.850;10.454;2023-02-15T10:44:36;2.30;99.90
19799;DHT22;10059;59.850;10.454;2023-02-15T10:47:19;2.10;99.90
19799;DHT22;10059;59.850;10.454;2023-02-15T10:50:10;2.00;99.90
19799;DHT22;10059;59.850;10.454;2023-02-15T10:52:49;2.40;99.90
19799;DHT22;10059;59.850;10.454;2023-02-15T10:55:29;2.70;99.90
19799;DHT22;10059;59.850;10.454;2023-02-15T10:58:08;2.40;99.90
19799;DHT22;10059;59.850;10.454;2023-02-15T11:00:39;2.60;99.90
19799;DHT22;10059;59.850;10.454;2023-02-15T11:03:28;3.00;99.90
19799;DHT22;10059;59.850;10.454;2023-02-15T11:06:03;3.70;99.90
19799;DHT22;10059;59.850;10.454;2023-02-15T11:08:34;4.50;99.90
19799;DHT22;10059;59.850;10.454;2023-02-15T11:11:05;4.80;99.90
19799;DHT22;10059;59.850;10.454;2023-02-15T11:13:36;5.80;99.90
19799;DHT22;10059;59.850;10.454;2023-02-15T11:16:06;7.20;99.90
19799;DHT22;10059;59.850;10.454;2023-02-15T11:18:38;7.10;99.90
19799;DHT22;10059;59.850;10.454;2023-02-15T11:21:08;6.30;99.90
19799;DHT22;10059;59.850;10.454;2023-02-15T11:23:41;5.70;99.90
19799;DHT22;10059;59.850;10.454;2023-02-15T11:26:14;5.00;99.90
19799;DHT22;10059;59.850;10.454;2023-02-15T11:28:47;4.50;99.90
19799;DHT22;10059;59.850;10.454;2023-02-15T11:31:17;4.10;99.90
19799;DHT22;10059;59.850;10.454;2023-02-15T11:33:49;3.80;99.90
19799;DHT22;10059;59.850;10.454;2023-02-15T11:36:20;3.90;99.90
19799;DHT22;10059;59.850;10.454;2023-02-15T11:38:52;3.50;99.90
19799;DHT22;10059;59.850;10.454;2023-02-15T11:41:24;3.00;99.90
19799;DHT22;10059;59.850;10.454;2023-02-15T11:43:56;2.70;99.90
19799;DHT22;10059;59.850;10.454;2023-02-15T11:46:25;2.80;99.90
19799;DHT22;10059;59.850;10.454;2023-02-15T11:48:53;3.00;99.90
19799;DHT22;10059;59.850;10.454;2023-02-15T11:51:22;2.60;99.90
19799;DHT22;10059;59.850;10.454;2023-02-15T11:53:50;2.50;99.90
19799;DHT22;10059;59.850;10.454;2023-02-15T11:56:19;2.70;99.90
19799;DHT22;10059;59.850;10.454;2023-02-15T11:58:51;2.40;99.90
19799;DHT22;10059;59.850;10.454;2023-02-15T12:01:23;2.30;99.90
19799;DHT22;10059;59.850;10.454;2023-02-15T12:03:53;2.50;99.90
19799;DHT22;10059;59.850;10.454;2023-02-15T12:06:25;2.20;99.90
19799;DHT22;10059;59.850;10.454;2023-02-15T12:08:58;1.90;99.90
19799;DHT22;10059;59.850;10.454;2023-02-15T12:11:33;1.80;99.90
19799;DHT22;10059;59.850;10.454;2023-02-15T12:14:02;2.10;99.90
19799;DHT22;10059;59.850;10.454;2023-02-15T12:16:34;1.90;99.90
19799;DHT22;10059;59.850;10.454;2023-02-15T12:19:19;1.70;99.90
19799;DHT22;10059;59.850;10.454;2023-02-15T12:21:50;1.80;99.90
19799;DHT22;10059;59.850;10.454;2023-02-15T12:24:19;2.20;99.90
19799;DHT22;10059;59.850;10.454;2023-02-15T12:26:57;1.70;99.90
19799;DHT22;10059;59.850;10.454;2023-02-15T12:29:27;1.90;99.90
19799;DHT22;10059;59.850;10.454;2023-02-15T12:31:54;2.10;99.90
19799;DHT22;10059;59.850;10.454;2023-02-15T12:34:26;2.00;99.90
19799;DHT22;10059;59.850;10.454;2023-02-15T12:36:54;1.90;99.90
19799;DHT22;10059;59.850;10.454;2023-02-15T12:39:24;1.70;99.90
19799;DHT22;10059;59.850;10.454;2023-02-15T12:42:02;1.80;99.90
19799;DHT22;10059;59.850;10.454;2023-02-15T12:44:31;1.90;99.90
19799;DHT22;10059;59.850;10.454;2023-02-15T12:47:01;2.10;99.90
19799;DHT22;10059;59.850;10.454;2023-02-15T12:49:30;2.20;99.90
19799;DHT22;10059;59.850;10.454;2023-02-15T12:51:59;2.30;99.90
19799;DHT22;10059;59.850;10.454;2023-02-15T12:54:37;2.10;99.90
19799;DHT22;10059;59.850;10.454;2023-02-15T12:57:19;2.20;99.90
19799;DHT22;10059;59.850;10.454;2023-02-15T12:59:52;1.90;99.90
19799;DHT22;10059;59.850;10.454;2023-02-15T13:02:28;2.00;99.90
19799;DHT22;10059;59.850;10.454;2023-02-15T13:05:07;2.10;99.90
19799;DHT22;10059;59.850;10.454;2023-02-15T13:07:34;2.00;99.90
19799;DHT22;10059;59.850;10.454;2023-02-15T13:10:01;2.10;99.90
19799;DHT22;10059;59.850;10.454;2023-02-15T13:12:29;2.20;99.90
19799;DHT22;10059;59.850;10.454;2023-02-15T13:14:58;2.30;99.90
19799;DHT22;10059;59.850;10.454;2023-02-15T13:17:29;2.30;99.90
19799;DHT22;10059;59.850;10.454;2023-02-15T13:20:02;2.10;99.90
19799;DHT22;10059;59.850;10.454;2023-02-15T13:22:35;1.80;99.90
19799;DHT22;10059;59.850;10.454;2023-02-15T13:25:11;1.80;99.90
19799;DHT22;10059;59.850;10.454;2023-02-15T13:27:41;1.70;99.90
19799;DHT22;10059;59.850;10.454;2023-02-15T13:30:18;1.70;99.90
19799;DHT22;10059;59.850;10.454;2023-02-15T13:32:49;1.70;99.90
19799;DHT22;10059;59.850;10.454;2023-02-15T13:35:18;1.70;99.90
19799;DHT22;10059;59.850;10.454;2023-02-15T13:37:57;1.60;99.90
19799;DHT22;10059;59.850;10.454;2023-02-15T13:40:29;1.70;99.90
19799;DHT22;10059;59.850;10.454;2023-02-15T13:43:02;1.80;99.90
19799;DHT22;10059;59.850;10.454;2023-02-15T13:45:40;1.90;99.90
19799;DHT22;10059;59.850;10.454;2023-02-15T13:48:20;1.90;99.90
19799;DHT22;10059;59.850;10.454;2023-02-15T13:51:04;1.80;99.90
19799;DHT22;10059;59.850;10.454;2023-02-15T13:53:51;1.60;99.90
19799;DHT22;10059;59.850;10.454;2023-02-15T13:56:28;1.50;99.90
19799;DHT22;10059;59.850;10.454;2023-02-15T13:59:20;1.50;99.90
19799;DHT22;10059;59.850;10.454;2023-02-15T14:01:56;1.20;99.90
19799;DHT22;10059;59.850;10.454;2023-02-15T14:04:43;1.50;99.90
19799;DHT22;10059;59.850;10.454;2023-02-15T14:07:37;1.60;99.90
19799;DHT22;10059;59.850;10.454;2023-02-15T14:10:22;1.70;99.90
19799;DHT22;10059;59.850;10.454;2023-02-15T14:13:03;1.70;99.90
19799;DHT22;10059;59.850;10.454;2023-02-15T14:15:39;1.80;99.90
19799;DHT22;10059;59.850;10.454;2023-02-15T14:18:18;1.80;99.90
19799;DHT22;10059;59.850;10.454;2023-02-15T14:20:57;1.90;99.90
19799;DHT22;10059;59.850;10.454;2023-02-15T14:23:36;1.90;99.90
19799;DHT22;10059;59.850;10.454;2023-02-15T14:26:09;1.90;99.90
19799;DHT22;10059;59.850;10.454;2023-02-15T14:28:43;1.80;99.90
19799;DHT22;10059;59.850;10.454;2023-02-15T14:31:13;1.80;99.90
19799;DHT22;10059;59.850;10.454;2023-02-15T14:33:46;1.70;99.90
19799;DHT22;10059;59.850;10.454;2023-02-15T14:36:18;1.80;99.90
19799;DHT22;10059;59.850;10.454;2023-02-15T14:38:56;1.90;99.90
19799;DHT22;10059;59.850;10.454;2023-02-15T14:41:31;2.00;99.90
19799;DHT22;10059;59.850;10.454;2023-02-15T14:44:04;2.00;99.90
19799;DHT22;10059;59.850;10.454;2023-02-15T14:46:38;2.10;99.90
19799;DHT22;10059;59.850;10.454;2023-02-15T14:49:11;1.90;99.90
19799;DHT22;10059;59.850;10.454;2023-02-15T14:51:55;1.90;99.90
19799;DHT22;10059;59.850;10.454;2023-02-15T14:54:54;1.90;99.90
19799;DHT22;10059;59.850;10.454;2023-02-15T14:57:24;1.80;99.90
19799;DHT22;10059;59.850;10.454;2023-02-15T14:59:54;1.80;99.90
19799;DHT22;10059;59.850;10.454;2023-02-15T15:02:25;1.70;99.90
19799;DHT22;10059;59.850;10.454;2023-02-15T15:05:00;1.80;99.90
19799;DHT22;10059;59.850;10.454;2023-02-15T15:07:35;1.60;99.90
19799;DHT22;10059;59.850;10.454;2023-02-15T15:10:29;1.60;99.90
19799;DHT22;10059;59.850;10.454;2023-02-15T15:12:54;1.90;99.90
19799;DHT22;10059;59.850;10.454;2023-02-15T15:15:33;1.90;99.90
19799;DHT22;10059;59.850;10.454;2023-02-15T15:18:01;1.80;99.90
19799;DHT22;10059;59.850;10.454;2023-02-15T15:20:41;1.70;99.90
19799;DHT22;10059;59.850;10.454;2023-02-15T15:23:41;1.70;99.90
19799;DHT22;10059;59.850;10.454;2023-02-15T15:26:32;1.70;99.90
19799;DHT22;10059;59.850;10.454;2023-02-15T15:29:03;1.60;99.90
19799;DHT22;10059;59.850;10.454;2023-02-15T15:31:43;1.60;99.90
19799;DHT22;10059;59.850;10.454;2023-02-15T15:34:50;1.50;99.90
19799;DHT22;10059;59.850;10.454;2023-02-15T15:41:05;1.60;99.90
19799;DHT22;10059;59.850;10.454;2023-02-15T15:47:00;1.50;99.90
19799;DHT22;10059;59.850;10.454;2023-02-15T15:49:32;1.50;99.90
19799;DHT22;10059;59.850;10.454;2023-02-15T15:52:00;1.50;99.90
19799;DHT22;10059;59.850;10.454;2023-02-15T15:54:28;1.40;99.90
19799;DHT22;10059;59.850;10.454;2023-02-15T15:56:57;1.30;99.90
19799;DHT22;10059;59.850;10.454;2023-02-15T15:59:26;1.30;99.90
19799;DHT22;10059;59.850;10.454;2023-02-15T16:01:55;1.40;99.90
19799;DHT22;10059;59.850;10.454;2023-02-15T16:04:24;1.40;99.90
19799;DHT22;10059;59.850;10.454;2023-02-15T16:06:52;1.50;99.90
19799;DHT22;10059;59.850;10.454;2023-02-15T16:09:21;1.50;99.90
19799;DHT22;10059;59.850;10.454;2023-02-15T16:11:49;1.50;99.90
19799;DHT22;10059;59.850;10.454;2023-02-15T16:14:24;1.40;99.90
19799;DHT22;10059;59.850;10.454;2023-02-15T16:16:56;1.40;99.90
19799;DHT22;10059;59.850;10.454;2023-02-15T16:19:26;1.30;99.90